East Winnfield, Louisiana
Current Conditions -  °F | °C
As of 4:55 PM on Wednesday 26 Nov 2014 (Local Time) from KIER Reporting Station
Clear Clear  
Wind Chill: 65°   Ceiling: Unl
Heat Index: 65°   Visibility: 10mi
Dew Point: 39°   Wind: 5mph
Humidity: 38%   Direction: 270°W
Pressure: 30.16"   Gusts: NA
Location:  31.9379°N, 92.5858°W
Report Text: KIER 262255Z AUTO 27004KT 10SM CLR 19/04 A3016 RMK AO2 T01860040
Loading
Personal Weather Stations






























Interactive Weather Map New forecast layout! Learn more

10-Day Weather Forecast

Advertisements
Track Severe Weather on mobile